sensor_id;sensor_type;location;lat;lon;timestamp;pressure;altitude;pressure_sealevel;temperature;humidity
48517;BME280;34310;51.904;4.256;2022-07-22T00:01:54;102325.06;;;22.92;57.04
48517;BME280;34310;51.904;4.256;2022-07-22T00:04:22;102321.53;;;22.92;57.19
48517;BME280;34310;51.904;4.256;2022-07-22T00:06:49;102315.44;;;22.93;57.38
48517;BME280;34310;51.904;4.256;2022-07-22T00:09:16;102315.44;;;22.93;57.32
48517;BME280;34310;51.904;4.256;2022-07-22T00:11:43;102319.78;;;22.92;57.11
48517;BME280;34310;51.904;4.256;2022-07-22T00:14:11;102314.47;;;22.91;57.44
48517;BME280;34310;51.904;4.256;2022-07-22T00:16:40;102307.47;;;22.91;57.49
48517;BME280;34310;51.904;4.256;2022-07-22T00:19:07;102304.75;;;22.90;57.34
48517;BME280;34310;51.904;4.256;2022-07-22T00:21:35;102310.94;;;22.90;57.28
48517;BME280;34310;51.904;4.256;2022-07-22T00:24:02;102305.66;;;22.90;57.39
48517;BME280;34310;51.904;4.256;2022-07-22T00:26:31;102309.13;;;22.89;57.12
48517;BME280;34310;51.904;4.256;2022-07-22T00:28:59;102306.50;;;22.89;57.36
48517;BME280;34310;51.904;4.256;2022-07-22T00:31:26;102313.50;;;22.89;57.44
48517;BME280;34310;51.904;4.256;2022-07-22T00:33:54;102302.97;;;22.89;57.60
48517;BME280;34310;51.904;4.256;2022-07-22T00:36:21;102302.97;;;22.89;57.40
48517;BME280;34310;51.904;4.256;2022-07-22T00:38:48;102302.06;;;22.88;57.38
48517;BME280;34310;51.904;4.256;2022-07-22T00:41:16;102306.44;;;22.88;57.63
48517;BME280;34310;51.904;4.256;2022-07-22T00:44:03;102300.25;;;22.87;57.82
48517;BME280;34310;51.904;4.256;2022-07-22T00:46:32;102304.69;;;22.88;57.58
48517;BME280;34310;51.904;4.256;2022-07-22T00:49:02;102293.19;;;22.86;57.57
48517;BME280;34310;51.904;4.256;2022-07-22T00:51:30;102292.28;;;22.85;57.62
48517;BME280;34310;51.904;4.256;2022-07-22T00:53:58;102286.19;;;22.86;57.62
48517;BME280;34310;51.904;4.256;2022-07-22T00:56:27;102287.94;;;22.86;57.70
48517;BME280;34310;51.904;4.256;2022-07-22T00:58:58;102287.03;;;22.85;57.56
48517;BME280;34310;51.904;4.256;2022-07-22T01:01:27;102295.81;;;22.86;57.68
48517;BME280;34310;51.904;4.256;2022-07-22T01:03:55;102292.28;;;22.85;57.59
48517;BME280;34310;51.904;4.256;2022-07-22T01:06:29;102283.50;;;22.85;57.62
48517;BME280;34310;51.904;4.256;2022-07-22T01:08:57;102286.94;;;22.84;57.71
48517;BME280;34310;51.904;4.256;2022-07-22T01:11:25;102290.50;;;22.84;57.70
48517;BME280;34310;51.904;4.256;2022-07-22T01:13:54;102290.50;;;22.84;57.76
48517;BME280;34310;51.904;4.256;2022-07-22T01:16:22;102287.84;;;22.84;57.67
48517;BME280;34310;51.904;4.256;2022-07-22T01:18:50;102283.41;;;22.83;57.75
48517;BME280;34310;51.904;4.256;2022-07-22T01:21:17;102283.31;;;22.82;57.76
48517;BME280;34310;51.904;4.256;2022-07-22T01:23:45;102286.84;;;22.82;57.87
48517;BME280;34310;51.904;4.256;2022-07-22T01:26:13;102290.41;;;22.83;57.64
48517;BME280;34310;51.904;4.256;2022-07-22T01:28:41;102283.31;;;22.82;57.89
48517;BME280;34310;51.904;4.256;2022-07-22T01:31:09;102278.06;;;22.82;57.87
48517;BME280;34310;51.904;4.256;2022-07-22T01:33:36;102281.53;;;22.81;58.03
48517;BME280;34310;51.904;4.256;2022-07-22T01:36:04;102285.88;;;22.80;57.72
48517;BME280;34310;51.904;4.256;2022-07-22T01:38:32;102277.97;;;22.80;58.08
48517;BME280;34310;51.904;4.256;2022-07-22T01:41:00;102277.91;;;22.79;57.89
48517;BME280;34310;51.904;4.256;2022-07-22T01:43:27;102273.53;;;22.79;57.66
48517;BME280;34310;51.904;4.256;2022-07-22T01:45:55;102270.00;;;22.79;58.11
48517;BME280;34310;51.904;4.256;2022-07-22T01:48:23;102278.78;;;22.79;58.03
48517;BME280;34310;51.904;4.256;2022-07-22T01:50:51;102273.47;;;22.78;57.76
48517;BME280;34310;51.904;4.256;2022-07-22T01:53:18;102278.72;;;22.78;57.89
48517;BME280;34310;51.904;4.256;2022-07-22T01:55:46;102276.94;;;22.77;57.88
48517;BME280;34310;51.904;4.256;2022-07-22T01:58:14;102279.56;;;22.77;57.94
48517;BME280;34310;51.904;4.256;2022-07-22T02:00:41;102277.84;;;22.77;57.99
48517;BME280;34310;51.904;4.256;2022-07-22T02:03:09;102276.03;;;22.76;57.69
48517;BME280;34310;51.904;4.256;2022-07-22T02:05:38;102271.66;;;22.77;57.76
48517;BME280;34310;51.904;4.256;2022-07-22T02:08:08;102267.22;;;22.76;57.82
48517;BME280;34310;51.904;4.256;2022-07-22T02:10:36;102266.28;;;22.74;57.80
48517;BME280;34310;51.904;4.256;2022-07-22T02:13:04;102263.63;;;22.74;58.09
48517;BME280;34310;51.904;4.256;2022-07-22T02:15:32;102261.00;;;22.74;58.20
48517;BME280;34310;51.904;4.256;2022-07-22T02:17:59;102263.63;;;22.74;57.99
48517;BME280;34310;51.904;4.256;2022-07-22T02:20:27;102263.56;;;22.72;58.23
48517;BME280;34310;51.904;4.256;2022-07-22T02:22:54;102255.66;;;22.72;58.14
48517;BME280;34310;51.904;4.256;2022-07-22T02:25:21;102265.31;;;22.72;58.22
48517;BME280;34310;51.904;4.256;2022-07-22T02:27:48;102251.25;;;22.71;58.13
48517;BME280;34310;51.904;4.256;2022-07-22T02:30:16;102254.72;;;22.70;58.11
48517;BME280;34310;51.904;4.256;2022-07-22T02:32:43;102251.19;;;22.70;57.84
48517;BME280;34310;51.904;4.256;2022-07-22T02:35:10;102248.53;;;22.70;57.98
48517;BME280;34310;51.904;4.256;2022-07-22T02:37:38;102250.28;;;22.69;57.90
48517;BME280;34310;51.904;4.256;2022-07-22T02:40:06;102252.00;;;22.69;58.23
48517;BME280;34310;51.904;4.256;2022-07-22T02:42:35;102240.56;;;22.68;58.00
48517;BME280;34310;51.904;4.256;2022-07-22T02:45:03;102240.50;;;22.67;58.13
48517;BME280;34310;51.904;4.256;2022-07-22T02:47:31;102240.50;;;22.67;58.19
48517;BME280;34310;51.904;4.256;2022-07-22T02:49:58;102239.63;;;22.66;58.26
48517;BME280;34310;51.904;4.256;2022-07-22T02:52:25;102243.06;;;22.65;58.38
48517;BME280;34310;51.904;4.256;2022-07-22T02:54:53;102240.44;;;22.65;58.06
48517;BME280;34310;51.904;4.256;2022-07-22T02:57:20;102243.91;;;22.64;58.40
48517;BME280;34310;51.904;4.256;2022-07-22T02:59:47;102237.75;;;22.64;58.16
48517;BME280;34310;51.904;4.256;2022-07-22T03:02:15;102246.53;;;22.64;58.16
48517;BME280;34310;51.904;4.256;2022-07-22T03:04:42;102243.84;;;22.63;58.30
48517;BME280;34310;51.904;4.256;2022-07-22T03:07:09;102239.41;;;22.62;58.39
48517;BME280;34310;51.904;4.256;2022-07-22T03:09:37;102245.50;;;22.61;58.41
48517;BME280;34310;51.904;4.256;2022-07-22T03:12:04;102247.25;;;22.60;58.34
48517;BME280;34310;51.904;4.256;2022-07-22T03:14:31;102244.56;;;22.59;58.49
48517;BME280;34310;51.904;4.256;2022-07-22T03:16:59;102248.97;;;22.60;58.54
48517;BME280;34310;51.904;4.256;2022-07-22T03:19:26;102241.03;;;22.58;58.50
48517;BME280;34310;51.904;4.256;2022-07-22T03:21:53;102247.13;;;22.57;58.43
48517;BME280;34310;51.904;4.256;2022-07-22T03:24:21;102252.38;;;22.57;58.58
48517;BME280;34310;51.904;4.256;2022-07-22T03:26:48;102249.75;;;22.57;58.48
48517;BME280;34310;51.904;4.256;2022-07-22T03:29:15;102254.13;;;22.56;58.42
48517;BME280;34310;51.904;4.256;2022-07-22T03:31:43;102248.75;;;22.55;58.36
48517;BME280;34310;51.904;4.256;2022-07-22T03:34:10;102255.84;;;22.56;58.49
48517;BME280;34310;51.904;4.256;2022-07-22T03:36:37;102257.56;;;22.55;58.63
48517;BME280;34310;51.904;4.256;2022-07-22T03:39:05;102257.47;;;22.54;58.73
48517;BME280;34310;51.904;4.256;2022-07-22T03:41:32;102257.47;;;22.54;58.83
48517;BME280;34310;51.904;4.256;2022-07-22T03:43:59;102261.84;;;22.53;58.72
48517;BME280;34310;51.904;4.256;2022-07-22T03:46:27;102266.22;;;22.53;58.40
48517;BME280;34310;51.904;4.256;2022-07-22T03:48:54;102254.78;;;22.52;58.62
48517;BME280;34310;51.904;4.256;2022-07-22T03:51:22;102255.63;;;22.51;58.47
48517;BME280;34310;51.904;4.256;2022-07-22T03:53:49;102264.41;;;22.52;58.73
48517;BME280;34310;51.904;4.256;2022-07-22T03:56:16;102257.34;;;22.51;58.74
48517;BME280;34310;51.904;4.256;2022-07-22T03:58:44;102263.44;;;22.50;58.62
48517;BME280;34310;51.904;4.256;2022-07-22T04:01:11;102252.91;;;22.50;58.62
48517;BME280;34310;51.904;4.256;2022-07-22T04:03:38;102258.25;;;22.51;58.68
48517;BME280;34310;51.904;4.256;2022-07-22T04:06:06;102256.44;;;22.50;58.56
48517;BME280;34310;51.904;4.256;2022-07-22T04:08:33;102254.66;;;22.49;58.75
48517;BME280;34310;51.904;4.256;2022-07-22T04:11:01;102265.16;;;22.49;58.73
48517;BME280;34310;51.904;4.256;2022-07-22T04:13:28;102255.47;;;22.48;58.42
48517;BME280;34310;51.904;4.256;2022-07-22T04:15:55;102257.22;;;22.48;58.49
48517;BME280;34310;51.904;4.256;2022-07-22T04:18:23;102259.84;;;22.48;58.81
48517;BME280;34310;51.904;4.256;2022-07-22T04:20:50;102251.03;;;22.47;58.55
48517;BME280;34310;51.904;4.256;2022-07-22T04:23:18;102253.69;;;22.47;58.60
48517;BME280;34310;51.904;4.256;2022-07-22T04:25:48;102252.84;;;22.48;58.56
48517;BME280;34310;51.904;4.256;2022-07-22T04:28:15;102246.69;;;22.48;58.67
48517;BME280;34310;51.904;4.256;2022-07-22T04:30:42;102252.84;;;22.48;58.70
48517;BME280;34310;51.904;4.256;2022-07-22T04:33:09;102248.41;;;22.47;58.59
48517;BME280;34310;51.904;4.256;2022-07-22T04:35:37;102245.78;;;22.47;58.53
48517;BME280;34310;51.904;4.256;2022-07-22T04:38:04;102246.69;;;22.48;58.69
48517;BME280;34310;51.904;4.256;2022-07-22T04:40:32;102248.41;;;22.47;58.36
48517;BME280;34310;51.904;4.256;2022-07-22T04:42:59;102248.41;;;22.47;58.55
48517;BME280;34310;51.904;4.256;2022-07-22T04:45:27;102244.88;;;22.47;58.63
48517;BME280;34310;51.904;4.256;2022-07-22T04:47:54;102244.88;;;22.47;58.38
48517;BME280;34310;51.904;4.256;2022-07-22T04:50:21;102237.88;;;22.47;58.51
48517;BME280;34310;51.904;4.256;2022-07-22T04:52:48;102241.41;;;22.48;58.59
48517;BME280;34310;51.904;4.256;2022-07-22T04:55:16;102242.31;;;22.48;58.55
48517;BME280;34310;51.904;4.256;2022-07-22T04:57:43;102243.16;;;22.47;58.72
48517;BME280;34310;51.904;4.256;2022-07-22T05:00:11;102237.88;;;22.47;58.80
48517;BME280;34310;51.904;4.256;2022-07-22T05:02:38;102237.88;;;22.47;58.65
48517;BME280;34310;51.904;4.256;2022-07-22T05:05:06;102232.69;;;22.49;58.37
48517;BME280;34310;51.904;4.256;2022-07-22T05:07:33;102235.31;;;22.49;58.65
48517;BME280;34310;51.904;4.256;2022-07-22T05:10:01;102238.84;;;22.49;58.42
48517;BME280;34310;51.904;4.256;2022-07-22T05:12:28;102243.22;;;22.49;58.76
48517;BME280;34310;51.904;4.256;2022-07-22T05:14:55;102242.38;;;22.50;58.68
48517;BME280;34310;51.904;4.256;2022-07-22T05:17:23;102237.13;;;22.50;58.60
48517;BME280;34310;51.904;4.256;2022-07-22T05:19:52;102240.66;;;22.50;58.79
48517;BME280;34310;51.904;4.256;2022-07-22T05:22:19;102235.38;;;22.50;58.88
48517;BME280;34310;51.904;4.256;2022-07-22T05:24:47;102233.66;;;22.51;59.05
48517;BME280;34310;51.904;4.256;2022-07-22T05:27:14;102230.13;;;22.50;58.68
48517;BME280;34310;51.904;4.256;2022-07-22T05:29:42;102230.19;;;22.52;58.67
48517;BME280;34310;51.904;4.256;2022-07-22T05:32:09;102239.88;;;22.53;58.74
48517;BME280;34310;51.904;4.256;2022-07-22T05:34:36;102229.34;;;22.53;58.81
48517;BME280;34310;51.904;4.256;2022-07-22T05:37:04;102233.78;;;22.54;58.68
48517;BME280;34310;51.904;4.256;2022-07-22T05:39:31;102233.78;;;22.54;58.59
48517;BME280;34310;51.904;4.256;2022-07-22T05:41:58;102235.59;;;22.55;58.50
48517;BME280;34310;51.904;4.256;2022-07-22T05:44:27;102232.16;;;22.56;58.50
48517;BME280;34310;51.904;4.256;2022-07-22T05:46:54;102238.38;;;22.58;58.64
48517;BME280;34310;51.904;4.256;2022-07-22T05:49:21;102237.56;;;22.59;58.56
48517;BME280;34310;51.904;4.256;2022-07-22T05:51:49;102247.25;;;22.60;58.63
48517;BME280;34310;51.904;4.256;2022-07-22T05:54:16;102241.97;;;22.60;58.62
48517;BME280;34310;51.904;4.256;2022-07-22T05:56:43;102237.63;;;22.61;58.46
48517;BME280;34310;51.904;4.256;2022-07-22T05:59:11;102234.97;;;22.61;58.38
48517;BME280;34310;51.904;4.256;2022-07-22T06:01:38;102237.69;;;22.62;58.50
48517;BME280;34310;51.904;4.256;2022-07-22T06:04:06;102235.06;;;22.62;58.62
48517;BME280;34310;51.904;4.256;2022-07-22T06:06:33;102234.28;;;22.65;58.31
48517;BME280;34310;51.904;4.256;2022-07-22T06:09:00;102234.28;;;22.65;58.33
48517;BME280;34310;51.904;4.256;2022-07-22T06:11:28;102228.13;;;22.64;58.36
48517;BME280;34310;51.904;4.256;2022-07-22T06:13:56;102232.63;;;22.67;58.12
48517;BME280;34310;51.904;4.256;2022-07-22T06:16:23;102227.34;;;22.67;58.36
48517;BME280;34310;51.904;4.256;2022-07-22T06:18:50;102235.31;;;22.68;58.34
48517;BME280;34310;51.904;4.256;2022-07-22T06:21:18;102237.09;;;22.69;58.04
48517;BME280;34310;51.904;4.256;2022-07-22T06:23:45;102234.53;;;22.71;58.09
48517;BME280;34310;51.904;4.256;2022-07-22T06:26:12;102239.88;;;22.72;58.21
48517;BME280;34310;51.904;4.256;2022-07-22T06:28:40;102241.66;;;22.73;57.85
48517;BME280;34310;51.904;4.256;2022-07-22T06:31:07;102246.09;;;22.74;58.04
48517;BME280;34310;51.904;4.256;2022-07-22T06:33:34;102243.53;;;22.76;57.93
48517;BME280;34310;51.904;4.256;2022-07-22T06:36:02;102241.81;;;22.76;57.83
48517;BME280;34310;51.904;4.256;2022-07-22T06:38:30;102247.13;;;22.78;57.75
48517;BME280;34310;51.904;4.256;2022-07-22T06:41:07;102238.41;;;22.79;57.68
48517;BME280;34310;51.904;4.256;2022-07-22T06:43:34;102248.09;;;22.80;57.70
48517;BME280;34310;51.904;4.256;2022-07-22T06:46:02;102246.38;;;22.80;57.81
48517;BME280;34310;51.904;4.256;2022-07-22T06:48:32;102238.56;;;22.82;57.72
48517;BME280;34310;51.904;4.256;2022-07-22T06:50:59;102245.56;;;22.81;57.87
48517;BME280;34310;51.904;4.256;2022-07-22T06:53:26;102252.63;;;22.82;57.70
48517;BME280;34310;51.904;4.256;2022-07-22T06:55:54;102255.25;;;22.82;57.80
48517;BME280;34310;51.904;4.256;2022-07-22T06:58:21;102257.06;;;22.83;57.63
48517;BME280;34310;51.904;4.256;2022-07-22T07:00:48;102254.38;;;22.82;57.92
48517;BME280;34310;51.904;4.256;2022-07-22T07:03:16;102240.47;;;22.84;57.53
48517;BME280;34310;51.904;4.256;2022-07-22T07:06:00;102247.59;;;22.87;57.68
48517;BME280;34310;51.904;4.256;2022-07-22T07:08:29;102243.34;;;22.91;57.91
48517;BME280;34310;51.904;4.256;2022-07-22T07:10:56;102246.94;;;22.93;57.85
48517;BME280;34310;51.904;4.256;2022-07-22T07:13:24;102243.47;;;22.94;58.04
48517;BME280;34310;51.904;4.256;2022-07-22T07:15:51;102256.72;;;22.95;58.20
48517;BME280;34310;51.904;4.256;2022-07-22T07:18:18;102243.47;;;22.94;58.37
48517;BME280;34310;51.904;4.256;2022-07-22T07:20:46;102240.91;;;22.95;58.14
48517;BME280;34310;51.904;4.256;2022-07-22T07:23:13;102242.63;;;22.95;58.50
48517;BME280;34310;51.904;4.256;2022-07-22T07:25:41;102236.53;;;22.96;58.23
48517;BME280;34310;51.904;4.256;2022-07-22T07:28:09;102237.38;;;22.95;58.13
48517;BME280;34310;51.904;4.256;2022-07-22T07:30:36;102242.63;;;22.95;58.17
48517;BME280;34310;51.904;4.256;2022-07-22T07:33:03;102236.53;;;22.96;58.41
48517;BME280;34310;51.904;4.256;2022-07-22T07:35:31;102229.47;;;22.95;58.31
48517;BME280;34310;51.904;4.256;2022-07-22T07:37:59;102238.28;;;22.95;58.33
48517;BME280;34310;51.904;4.256;2022-07-22T07:40:27;102231.28;;;22.96;58.42
48517;BME280;34310;51.904;4.256;2022-07-22T07:42:54;102237.44;;;22.96;58.30
48517;BME280;34310;51.904;4.256;2022-07-22T07:45:30;102234.88;;;22.98;58.37
48517;BME280;34310;51.904;4.256;2022-07-22T07:47:58;102228.69;;;22.97;58.31
48517;BME280;34310;51.904;4.256;2022-07-22T07:50:26;102230.56;;;23.00;58.21
48517;BME280;34310;51.904;4.256;2022-07-22T07:52:53;102238.53;;;23.01;58.23
48517;BME280;34310;51.904;4.256;2022-07-22T07:55:23;102233.25;;;23.01;57.90
48517;BME280;34310;51.904;4.256;2022-07-22T07:57:51;102228.06;;;23.03;58.09
48517;BME280;34310;51.904;4.256;2022-07-22T08:00:25;102224.59;;;23.04;57.83
48517;BME280;34310;51.904;4.256;2022-07-22T08:02:56;102222.84;;;23.04;57.82
48517;BME280;34310;51.904;4.256;2022-07-22T08:05:25;102218.47;;;23.05;57.84
48517;BME280;34310;51.904;4.256;2022-07-22T08:07:53;102222.06;;;23.07;57.68
48517;BME280;34310;51.904;4.256;2022-07-22T08:10:21;102223.16;;;23.12;57.69
48517;BME280;34310;51.904;4.256;2022-07-22T08:13:09;102208.47;;;23.17;57.42
48517;BME280;34310;51.904;4.256;2022-07-22T08:15:37;102213.03;;;23.21;57.13
48517;BME280;34310;51.904;4.256;2022-07-22T08:18:05;102207.03;;;23.25;57.11
48517;BME280;34310;51.904;4.256;2022-07-22T08:20:32;102209.78;;;23.28;57.06
48517;BME280;34310;51.904;4.256;2022-07-22T08:23:00;102206.44;;;23.32;56.71
48517;BME280;34310;51.904;4.256;2022-07-22T08:25:27;102210.03;;;23.34;56.77
48517;BME280;34310;51.904;4.256;2022-07-22T08:27:55;102209.19;;;23.35;56.86
48517;BME280;34310;51.904;4.256;2022-07-22T08:30:22;102209.25;;;23.37;56.61
48517;BME280;34310;51.904;4.256;2022-07-22T08:32:50;102202.19;;;23.36;56.64
48517;BME280;34310;51.904;4.256;2022-07-22T08:35:18;102202.25;;;23.37;56.91
48517;BME280;34310;51.904;4.256;2022-07-22T08:37:46;102201.47;;;23.40;56.61
48517;BME280;34310;51.904;4.256;2022-07-22T08:40:16;102204.25;;;23.43;56.66
48517;BME280;34310;51.904;4.256;2022-07-22T08:42:46;102203.47;;;23.45;56.43
48517;BME280;34310;51.904;4.256;2022-07-22T08:45:14;102200.91;;;23.47;56.38
48517;BME280;34310;51.904;4.256;2022-07-22T08:47:47;102200.19;;;23.51;56.48
48517;BME280;34310;51.904;4.256;2022-07-22T08:50:15;102204.63;;;23.52;56.23
48517;BME280;34310;51.904;4.256;2022-07-22T08:52:43;102190.66;;;23.55;56.43
48517;BME280;34310;51.904;4.256;2022-07-22T08:55:10;102192.53;;;23.57;56.22
48517;BME280;34310;51.904;4.256;2022-07-22T08:57:43;102189.13;;;23.60;56.24
48517;BME280;34310;51.904;4.256;2022-07-22T09:00:12;102190.97;;;23.62;56.29
48517;BME280;34310;51.904;4.256;2022-07-22T09:02:42;102190.19;;;23.65;56.11
48517;BME280;34310;51.904;4.256;2022-07-22T09:05:12;102191.16;;;23.67;56.33
48517;BME280;34310;51.904;4.256;2022-07-22T09:08:01;102188.56;;;23.68;56.09
48517;BME280;34310;51.904;4.256;2022-07-22T09:10:33;102183.31;;;23.68;56.10
48517;BME280;34310;51.904;4.256;2022-07-22T09:13:04;102186.84;;;23.69;56.23
48517;BME280;34310;51.904;4.256;2022-07-22T09:15:45;102191.25;;;23.70;56.08
48517;BME280;34310;51.904;4.256;2022-07-22T09:18:13;102191.22;;;23.68;56.15
48517;BME280;34310;51.904;4.256;2022-07-22T09:20:40;102195.75;;;23.71;56.30
48517;BME280;34310;51.904;4.256;2022-07-22T09:23:16;102192.25;;;23.72;56.39
48517;BME280;34310;51.904;4.256;2022-07-22T09:25:49;102188.78;;;23.73;56.30
48517;BME280;34310;51.904;4.256;2022-07-22T09:28:19;102188.84;;;23.74;56.25
48517;BME280;34310;51.904;4.256;2022-07-22T09:30:53;102200.47;;;23.79;56.25
48517;BME280;34310;51.904;4.256;2022-07-22T09:33:24;102199.56;;;23.79;55.84
48517;BME280;34310;51.904;4.256;2022-07-22T09:35:53;102200.47;;;23.79;54.73
48517;BME280;34310;51.904;4.256;2022-07-22T09:38:28;102200.34;;;23.76;54.32
48517;BME280;34310;51.904;4.256;2022-07-22T09:40:56;102203.75;;;23.74;53.93
48517;BME280;34310;51.904;4.256;2022-07-22T09:43:24;102205.56;;;23.75;53.90
48517;BME280;34310;51.904;4.256;2022-07-22T09:45:57;102204.59;;;23.73;53.11
48517;BME280;34310;51.904;4.256;2022-07-22T09:48:25;102214.25;;;23.72;54.10
48517;BME280;34310;51.904;4.256;2022-07-22T09:50:54;102212.47;;;23.71;52.49
48517;BME280;34310;51.904;4.256;2022-07-22T09:53:25;102201.00;;;23.71;51.99
48517;BME280;34310;51.904;4.256;2022-07-22T09:55:55;102199.28;;;23.71;52.30
48517;BME280;34310;51.904;4.256;2022-07-22T09:58:24;102200.06;;;23.70;52.70
48517;BME280;34310;51.904;4.256;2022-07-22T10:00:54;102207.09;;;23.70;52.99
48517;BME280;34310;51.904;4.256;2022-07-22T10:03:28;102202.72;;;23.70;52.64
48517;BME280;34310;51.904;4.256;2022-07-22T10:05:57;102200.03;;;23.69;52.12
48517;BME280;34310;51.904;4.256;2022-07-22T10:08:26;102199.28;;;23.71;52.30
48517;BME280;34310;51.904;4.256;2022-07-22T10:10:58;102198.50;;;23.74;52.24
48517;BME280;34310;51.904;4.256;2022-07-22T10:13:26;102193.22;;;23.74;52.47
48517;BME280;34310;51.904;4.256;2022-07-22T10:15:55;102201.06;;;23.72;52.30
48517;BME280;34310;51.904;4.256;2022-07-22T10:18:24;102207.94;;;23.69;51.59
48517;BME280;34310;51.904;4.256;2022-07-22T10:21:10;102206.97;;;23.67;51.14
48517;BME280;34310;51.904;4.256;2022-07-22T10:24:11;102206.91;;;23.65;50.72
48517;BME280;34310;51.904;4.256;2022-07-22T10:26:58;102217.53;;;23.67;51.45
48517;BME280;34310;51.904;4.256;2022-07-22T10:29:32;102226.38;;;23.69;51.29
48517;BME280;34310;51.904;4.256;2022-07-22T10:37:39;102202.66;;;23.69;51.14
48517;BME280;34310;51.904;4.256;2022-07-22T10:40:21;102192.25;;;23.72;51.21
48517;BME280;34310;51.904;4.256;2022-07-22T10:45:45;102176.00;;;23.84;50.98
48517;BME280;34310;51.904;4.256;2022-07-22T10:48:54;102172.63;;;23.88;50.80
48517;BME280;34310;51.904;4.256;2022-07-22T10:51:19;102174.59;;;23.93;50.06
48517;BME280;34310;51.904;4.256;2022-07-22T10:53:57;102165.94;;;23.97;50.30
48517;BME280;34310;51.904;4.256;2022-07-22T10:56:34;102173.16;;;24.01;49.79
48517;BME280;34310;51.904;4.256;2022-07-22T10:59:17;102178.53;;;24.04;49.66
48517;BME280;34310;51.904;4.256;2022-07-22T11:01:53;102181.19;;;24.04;49.92
48517;BME280;34310;51.904;4.256;2022-07-22T11:04:24;102176.91;;;24.08;50.10
48517;BME280;34310;51.904;4.256;2022-07-22T11:06:56;102158.72;;;24.16;49.76
48517;BME280;34310;51.904;4.256;2022-07-22T11:09:33;102156.28;;;24.22;49.67
48517;BME280;34310;51.904;4.256;2022-07-22T11:12:01;102162.31;;;24.18;48.66
48517;BME280;34310;51.904;4.256;2022-07-22T11:14:33;102173.72;;;24.17;48.32
48517;BME280;34310;51.904;4.256;2022-07-22T11:17:05;102172.03;;;24.19;48.39
48517;BME280;34310;51.904;4.256;2022-07-22T11:19:33;102166.78;;;24.20;48.17
48517;BME280;34310;51.904;4.256;2022-07-22T11:22:09;102161.47;;;24.19;47.20
48517;BME280;34310;51.904;4.256;2022-07-22T11:24:38;102158.88;;;24.20;47.07
48517;BME280;34310;51.904;4.256;2022-07-22T11:27:14;102142.25;;;24.23;46.30
48517;BME280;34310;51.904;4.256;2022-07-22T11:29:42;102135.22;;;24.23;45.91
48517;BME280;34310;51.904;4.256;2022-07-22T11:32:14;102129.06;;;24.23;45.75
48517;BME280;34310;51.904;4.256;2022-07-22T11:34:43;102128.09;;;24.21;46.18
48517;BME280;34310;51.904;4.256;2022-07-22T11:37:16;102120.19;;;24.21;45.92
48517;BME280;34310;51.904;4.256;2022-07-22T11:39:44;102112.16;;;24.18;46.14
48517;BME280;34310;51.904;4.256;2022-07-22T11:42:12;102106.03;;;24.19;46.54
48517;BME280;34310;51.904;4.256;2022-07-22T11:44:39;102100.88;;;24.22;46.60
48517;BME280;34310;51.904;4.256;2022-07-22T11:47:07;102111.44;;;24.22;46.34
48517;BME280;34310;51.904;4.256;2022-07-22T11:49:36;102122.03;;;24.23;46.27
48517;BME280;34310;51.904;4.256;2022-07-22T11:52:07;102116.94;;;24.28;46.51
48517;BME280;34310;51.904;4.256;2022-07-22T11:54:40;102120.56;;;24.30;46.40
48517;BME280;34310;51.904;4.256;2022-07-22T11:57:08;102119.78;;;24.32;46.79
48517;BME280;34310;51.904;4.256;2022-07-22T11:59:36;102122.47;;;24.34;46.59
48517;BME280;34310;51.904;4.256;2022-07-22T12:02:04;102118.94;;;24.33;47.00
48517;BME280;34310;51.904;4.256;2022-07-22T12:04:34;102128.66;;;24.34;46.92
48517;BME280;34310;51.904;4.256;2022-07-22T12:07:02;102128.69;;;24.36;47.02
48517;BME280;34310;51.904;4.256;2022-07-22T12:09:35;102121.63;;;24.35;46.91
48517;BME280;34310;51.904;4.256;2022-07-22T12:12:04;102120.78;;;24.36;46.71
48517;BME280;34310;51.904;4.256;2022-07-22T12:14:33;102119.09;;;24.38;46.85
48517;BME280;34310;51.904;4.256;2022-07-22T12:17:05;102122.69;;;24.40;46.84
48517;BME280;34310;51.904;4.256;2022-07-22T12:19:34;102127.91;;;24.38;46.41
48517;BME280;34310;51.904;4.256;2022-07-22T12:22:03;102118.97;;;24.35;45.94
48517;BME280;34310;51.904;4.256;2022-07-22T12:27:07;102119.78;;;24.32;46.11
48517;BME280;34310;51.904;4.256;2022-07-22T12:34:36;102107.59;;;24.36;46.25
48517;BME280;34310;51.904;4.256;2022-07-22T12:37:26;102112.97;;;24.39;46.19
48517;BME280;34310;51.904;4.256;2022-07-22T12:40:10;102111.31;;;24.43;46.63
48517;BME280;34310;51.904;4.256;2022-07-22T12:42:44;102106.16;;;24.46;46.36
48517;BME280;34310;51.904;4.256;2022-07-22T12:45:18;102123.84;;;24.48;46.41
48517;BME280;34310;51.904;4.256;2022-07-22T12:47:53;102107.13;;;24.49;46.03
48517;BME280;34310;51.904;4.256;2022-07-22T12:50:32;102109.00;;;24.52;46.47
48517;BME280;34310;51.904;4.256;2022-07-22T12:53:02;102110.84;;;24.54;46.48
48517;BME280;34310;51.904;4.256;2022-07-22T12:55:47;102109.13;;;24.56;46.57
48517;BME280;34310;51.904;4.256;2022-07-22T12:58:16;102109.97;;;24.55;46.46
48517;BME280;34310;51.904;4.256;2022-07-22T13:00:51;102106.44;;;24.55;46.53
48517;BME280;34310;51.904;4.256;2022-07-22T13:03:20;102115.22;;;24.54;46.54
48517;BME280;34310;51.904;4.256;2022-07-22T13:05:51;102120.50;;;24.54;46.73
48517;BME280;34310;51.904;4.256;2022-07-22T13:08:19;102115.16;;;24.52;46.71
48517;BME280;34310;51.904;4.256;2022-07-22T13:10:49;102116.91;;;24.52;46.57
48517;BME280;34310;51.904;4.256;2022-07-22T13:13:16;102114.22;;;24.50;46.62
48517;BME280;34310;51.904;4.256;2022-07-22T13:15:44;102124.78;;;24.50;46.88
48517;BME280;34310;51.904;4.256;2022-07-22T13:18:11;102115.22;;;24.54;46.64